createdAt,value
2018-01-24T00:01:03.862Z,34.53
2018-01-24T00:03:32.106Z,38.90
2018-01-24T00:06:01.128Z,33.40
2018-01-24T00:08:29.413Z,37.60
2018-01-24T00:10:57.657Z,35.50
2018-01-24T00:13:25.934Z,32.30
2018-01-24T00:15:54.937Z,32.93
2018-01-24T00:18:23.286Z,28.80
2018-01-24T00:20:51.549Z,32.43
2018-01-24T00:23:19.805Z,36.73
2018-01-24T00:25:48.119Z,36.77
2018-01-24T00:28:17.144Z,33.20
2018-01-24T00:30:45.447Z,32.50
2018-01-24T00:33:13.805Z,35.87
2018-01-24T00:35:42.042Z,34.00
2018-01-24T00:38:11.042Z,33.30
2018-01-24T00:40:40.125Z,32.67
2018-01-24T00:43:09.130Z,26.40
2018-01-24T00:45:38.115Z,33.57
2018-01-24T00:48:07.142Z,34.27
2018-01-24T00:50:35.403Z,29.07
2018-01-24T00:53:03.642Z,31.23
2018-01-24T00:55:31.971Z,29.07
2018-01-24T00:58:00.214Z,31.17
2018-01-24T01:00:29.233Z,34.13
2018-01-24T01:02:57.490Z,30.70
2018-01-24T01:05:26.507Z,29.27
2018-01-24T01:07:54.914Z,29.60
2018-01-24T01:10:23.207Z,34.97
2018-01-24T01:12:51.485Z,28.50
2018-01-24T01:15:19.794Z,27.00
2018-01-24T01:17:48.048Z,27.10
2018-01-24T01:20:16.315Z,28.10
2018-01-24T01:22:44.741Z,26.77
2018-01-24T01:25:13.034Z,32.00
2018-01-24T01:27:41.291Z,27.93
2018-01-24T01:30:09.637Z,28.03
2018-01-24T01:32:38.702Z,32.40
2018-01-24T01:35:07.127Z,30.27
2018-01-24T01:37:35.355Z,30.17
2018-01-24T01:40:03.598Z,33.20
2018-01-24T01:42:32.656Z,26.03
2018-01-24T01:45:01.683Z,27.40
2018-01-24T01:47:29.928Z,26.77
2018-01-24T01:49:59.009Z,29.80
2018-01-24T01:52:27.265Z,25.40
2018-01-24T01:54:55.553Z,26.13
2018-01-24T01:57:23.874Z,25.00
2018-01-24T01:59:52.131Z,27.40
2018-01-24T02:02:20.385Z,26.87
2018-01-24T02:04:48.659Z,27.63
2018-01-24T02:07:16.933Z,26.27
2018-01-24T02:09:45.229Z,24.63
2018-01-24T02:12:13.515Z,27.73
2018-01-24T02:14:41.763Z,25.40
2018-01-24T02:17:10.094Z,26.73
2018-01-24T02:19:38.332Z,22.67
2018-01-24T02:22:07.343Z,25.80
2018-01-24T02:24:35.603Z,25.30
2018-01-24T02:27:04.597Z,21.97
2018-01-24T02:29:33.683Z,22.47
2018-01-24T02:32:02.725Z,24.00
2018-01-24T02:34:33.179Z,25.17
2018-01-24T02:37:01.480Z,20.70
2018-01-24T02:39:30.546Z,22.47
2018-01-24T02:41:58.787Z,24.53
2018-01-24T02:44:27.110Z,23.97
2018-01-24T02:46:55.515Z,23.63
2018-01-24T02:49:23.749Z,23.00
2018-01-24T02:51:51.968Z,20.30
2018-01-24T02:54:20.374Z,20.17
2018-01-24T02:56:48.607Z,20.67
2018-01-24T02:59:16.870Z,19.97
2018-01-24T03:01:45.157Z,18.23
2018-01-24T03:04:14.177Z,20.27
2018-01-24T03:06:42.414Z,22.77
2018-01-24T03:09:10.687Z,21.50
2018-01-24T03:11:38.956Z,20.30
2018-01-24T03:14:07.319Z,19.80
2018-01-24T03:16:35.645Z,20.43
2018-01-24T03:19:03.905Z,19.70
2018-01-24T03:21:33.073Z,21.10
2018-01-24T03:24:01.300Z,20.57
2018-01-24T03:26:29.538Z,18.73
2018-01-24T03:28:57.809Z,19.37
2018-01-24T03:31:26.074Z,18.17
2018-01-24T03:33:54.368Z,19.20
2018-01-24T03:36:22.591Z,19.40
2018-01-24T03:38:50.846Z,19.70
2018-01-24T03:41:19.133Z,19.30
2018-01-24T03:43:47.377Z,19.33
2018-01-24T03:46:16.466Z,19.87
2018-01-24T03:48:44.702Z,20.70
2018-01-24T03:51:12.941Z,19.53
2018-01-24T03:53:41.230Z,24.57
2018-01-24T03:56:09.466Z,19.10
2018-01-24T03:58:37.846Z,19.80
2018-01-24T04:01:06.078Z,16.90
2018-01-24T04:03:34.325Z,17.73
2018-01-24T04:06:02.723Z,20.67
2018-01-24T04:08:30.973Z,18.90
2018-01-24T04:10:59.247Z,17.00
2018-01-24T04:13:28.367Z,19.30
2018-01-24T04:15:56.616Z,20.70
2018-01-24T04:18:25.633Z,17.60
2018-01-24T04:20:53.939Z,18.97
2018-01-24T04:23:22.176Z,18.33
2018-01-24T04:25:50.415Z,15.70
2018-01-24T04:28:18.711Z,16.20
2018-01-24T04:30:47.728Z,17.57
2018-01-24T04:33:15.955Z,18.57
2018-01-24T04:35:44.231Z,15.37
2018-01-24T04:38:12.467Z,16.30
2018-01-24T04:40:40.763Z,16.77
2018-01-24T04:43:09.013Z,17.10
2018-01-24T04:45:37.251Z,17.43
2018-01-24T04:48:06.299Z,15.20
2018-01-24T04:50:34.536Z,14.53
2018-01-24T04:53:02.815Z,15.03
2018-01-24T04:55:31.099Z,13.83
2018-01-24T04:57:59.357Z,16.40
2018-01-24T05:00:27.604Z,12.53
2018-01-24T05:02:55.894Z,14.70
2018-01-24T05:05:24.950Z,14.47
2018-01-24T05:07:53.191Z,12.87
2018-01-24T05:10:21.429Z,13.30
2018-01-24T05:12:49.730Z,12.90
2018-01-24T05:15:18.021Z,12.23
2018-01-24T05:17:46.288Z,13.43
2018-01-24T05:20:14.600Z,16.40
2018-01-24T05:22:42.823Z,10.80
2018-01-24T05:25:11.845Z,11.13
2018-01-24T05:27:40.148Z,13.67
2018-01-24T05:30:08.394Z,11.10
2018-01-24T05:32:36.719Z,11.40
2018-01-24T05:35:05.048Z,11.90
2018-01-24T05:37:34.069Z,11.67
2018-01-24T05:40:02.333Z,13.17
2018-01-24T05:42:30.609Z,10.73
2018-01-24T05:44:58.959Z,12.13
2018-01-24T05:47:27.232Z,12.60
2018-01-24T05:49:56.340Z,13.60
2018-01-24T05:52:24.665Z,11.73
2018-01-24T05:54:52.918Z,10.83
2018-01-24T05:57:21.138Z,11.67
2018-01-24T05:59:50.362Z,11.07
2018-01-24T06:02:18.637Z,11.90
2018-01-24T06:04:47.108Z,9.90
2018-01-24T06:07:15.404Z,9.97
2018-01-24T06:09:43.785Z,9.63
2018-01-24T06:12:12.138Z,10.53
2018-01-24T06:14:40.430Z,11.40
2018-01-24T06:17:08.684Z,10.70
2018-01-24T06:19:38.374Z,10.47
2018-01-24T06:22:06.669Z,12.00
2018-01-24T06:24:35.099Z,10.40
2018-01-24T06:27:03.434Z,10.90
2018-01-24T06:29:31.733Z,9.30
2018-01-24T06:32:00.121Z,9.30
2018-01-24T06:34:28.387Z,10.57
2018-01-24T06:36:56.672Z,9.13
2018-01-24T06:39:25.181Z,10.03
2018-01-24T06:41:53.486Z,11.10
2018-01-24T06:44:22.551Z,9.37
2018-01-24T06:46:50.829Z,9.93
2018-01-24T06:49:19.074Z,9.60
2018-01-24T06:51:47.379Z,11.87
2018-01-24T06:54:15.650Z,10.07
2018-01-24T06:56:43.918Z,11.30
2018-01-24T06:59:12.193Z,11.47
2018-01-24T07:01:40.576Z,11.50
2018-01-24T07:04:08.876Z,11.97
2018-01-24T07:06:37.901Z,10.77
2018-01-24T07:09:06.206Z,10.27
2018-01-24T07:11:34.484Z,9.50
2018-01-24T07:14:20.672Z,11.10
2018-01-24T07:16:48.972Z,9.70
2018-01-24T07:19:17.276Z,10.33
2018-01-24T07:21:45.641Z,9.17
2018-01-24T07:24:13.920Z,8.20
2018-01-24T07:26:42.177Z,9.43
2018-01-24T07:29:10.565Z,8.57
2018-01-24T07:31:38.902Z,9.97
2018-01-24T07:34:07.225Z,9.13
2018-01-24T07:36:35.485Z,9.13
2018-01-24T07:39:03.762Z,8.33
2018-01-24T07:41:32.907Z,10.07
2018-01-24T07:44:01.155Z,9.07
2018-01-24T07:46:30.224Z,11.13
2018-01-24T07:48:58.534Z,9.40
2018-01-24T07:51:27.950Z,8.80
2018-01-24T07:53:59.989Z,10.10
2018-01-24T07:56:35.131Z,9.00
2018-01-24T08:02:18.896Z,9.90
2018-01-24T08:04:50.030Z,9.43
2018-01-24T08:07:22.455Z,8.73
2018-01-24T08:09:50.875Z,10.40
2018-01-24T08:12:19.221Z,10.60
2018-01-24T08:14:47.518Z,9.53
2018-01-24T08:17:15.876Z,8.73
2018-01-24T08:19:44.287Z,10.23
2018-01-24T08:22:13.553Z,8.17
2018-01-24T08:24:41.846Z,7.73
2018-01-24T08:27:10.158Z,9.17
2018-01-24T08:29:38.451Z,8.70
2018-01-24T08:32:06.812Z,8.47
2018-01-24T08:34:35.984Z,7.33
2018-01-24T08:37:04.484Z,9.00
2018-01-24T08:39:33.550Z,7.73
2018-01-24T08:42:01.818Z,8.57
2018-01-24T08:44:30.248Z,9.80
2018-01-24T08:46:58.722Z,9.13
2018-01-24T08:49:26.961Z,8.43
2018-01-24T08:51:55.268Z,8.60
2018-01-24T08:54:24.320Z,8.20
2018-01-24T08:56:53.007Z,6.67
2018-01-24T08:59:22.516Z,8.10
2018-01-24T09:01:50.973Z,7.97
2018-01-24T09:04:19.417Z,7.13
2018-01-24T09:06:47.684Z,7.63
2018-01-24T09:09:16.733Z,8.37
2018-01-24T09:11:45.114Z,7.90
2018-01-24T09:14:13.342Z,7.63
2018-01-24T09:16:42.325Z,9.67
2018-01-24T09:19:11.397Z,8.80
2018-01-24T09:21:39.669Z,8.23
2018-01-24T09:24:07.981Z,7.67
2018-01-24T09:26:36.334Z,8.83
2018-01-24T09:29:04.604Z,8.00
2018-01-24T09:31:32.849Z,6.83
2018-01-24T09:34:01.189Z,7.97
2018-01-24T09:36:29.598Z,8.90
2018-01-24T09:38:57.858Z,7.40
2018-01-24T09:41:26.094Z,7.40
2018-01-24T09:43:54.554Z,7.43
2018-01-24T09:46:22.828Z,8.30
2018-01-24T09:48:51.121Z,7.63
2018-01-24T09:51:19.448Z,8.60
2018-01-24T09:53:47.734Z,5.70
2018-01-24T09:56:15.996Z,9.43
2018-01-24T09:58:59.254Z,7.57
2018-01-24T10:01:27.710Z,8.50
2018-01-24T10:03:56.073Z,8.63
2018-01-24T10:06:24.479Z,7.60
2018-01-24T10:08:52.725Z,9.03
2018-01-24T10:11:21.004Z,7.03
2018-01-24T10:13:49.333Z,7.03
2018-01-24T10:16:17.576Z,8.73
2018-01-24T10:18:45.962Z,7.30
2018-01-24T10:21:14.246Z,8.40
2018-01-24T10:23:42.533Z,7.90
2018-01-24T10:26:10.821Z,8.47
2018-01-24T10:28:39.892Z,7.30
2018-01-24T10:31:08.130Z,7.37
2018-01-24T10:33:36.417Z,8.20
2018-01-24T10:36:04.950Z,7.67
2018-01-24T10:38:33.225Z,8.07
2018-01-24T10:41:01.535Z,7.87
2018-01-24T10:43:29.924Z,7.13
2018-01-24T10:45:58.269Z,7.13
2018-01-24T10:48:27.305Z,10.23
2018-01-24T10:50:55.626Z,8.73
2018-01-24T10:53:23.983Z,7.07
2018-01-24T10:55:52.302Z,7.90
2018-01-24T10:58:20.650Z,7.00
2018-01-24T11:00:49.010Z,5.50
2018-01-24T11:03:17.538Z,6.77
2018-01-24T11:05:45.843Z,7.43
2018-01-24T11:08:14.095Z,6.20
2018-01-24T11:10:42.333Z,6.30
2018-01-24T11:13:10.639Z,8.20
2018-01-24T11:15:39.062Z,6.93
2018-01-24T11:18:07.325Z,6.90
2018-01-24T11:20:35.629Z,6.67
2018-01-24T11:23:03.881Z,7.07
2018-01-24T11:25:32.171Z,7.30
2018-01-24T11:28:00.451Z,6.87
2018-01-24T11:30:28.673Z,7.57
2018-01-24T11:32:57.693Z,6.63
2018-01-24T11:35:26.019Z,7.00
2018-01-24T11:37:54.274Z,6.83
2018-01-24T11:40:22.518Z,6.43
2018-01-24T11:42:50.827Z,6.30
2018-01-24T11:45:19.084Z,6.17
2018-01-24T11:47:47.386Z,7.23
2018-01-24T11:50:15.683Z,7.70
2018-01-24T11:52:44.700Z,6.30
2018-01-24T11:55:12.940Z,6.77
2018-01-24T11:57:41.261Z,5.50
2018-01-24T12:00:09.779Z,6.10
2018-01-24T12:02:38.038Z,5.80
2018-01-24T12:05:06.338Z,5.67
2018-01-24T12:07:34.597Z,5.33
2018-01-24T12:10:02.860Z,5.50
2018-01-24T12:12:31.134Z,6.07
2018-01-24T12:14:59.411Z,4.83
2018-01-24T12:17:27.722Z,4.90
2018-01-24T12:19:55.996Z,5.67
2018-01-24T12:22:24.229Z,4.33
2018-01-24T12:24:52.552Z,5.40
2018-01-24T12:27:20.814Z,8.33
2018-01-24T12:29:49.141Z,8.00
2018-01-24T12:32:17.576Z,8.63
2018-01-24T12:34:45.906Z,8.50
2018-01-24T12:37:14.208Z,6.20
2018-01-24T12:39:42.585Z,8.70
2018-01-24T12:42:10.946Z,8.83
2018-01-24T12:44:39.192Z,6.93
2018-01-24T12:47:08.195Z,5.87
2018-01-24T12:49:36.469Z,7.20
2018-01-24T12:52:04.729Z,5.80
2018-01-24T12:54:33.761Z,5.63
2018-01-24T12:57:02.147Z,6.23
2018-01-24T12:59:30.393Z,5.50
2018-01-24T13:01:59.652Z,5.90
2018-01-24T13:04:27.934Z,5.40
2018-01-24T13:06:56.217Z,5.70
2018-01-24T13:09:24.476Z,5.73
2018-01-24T13:11:52.753Z,5.50
2018-01-24T13:14:20.992Z,5.20
2018-01-24T13:16:49.238Z,4.60
2018-01-24T13:19:18.335Z,5.13
2018-01-24T13:21:46.578Z,5.70
2018-01-24T13:24:14.812Z,6.10
2018-01-24T13:26:43.143Z,5.10
2018-01-24T13:29:11.382Z,4.57
2018-01-24T13:31:39.610Z,4.97
2018-01-24T13:34:08.796Z,5.77
2018-01-24T13:36:37.806Z,5.83
2018-01-24T13:39:06.824Z,5.20
2018-01-24T13:41:35.114Z,5.40
2018-01-24T13:44:03.379Z,5.50
2018-01-24T13:46:31.615Z,7.50
2018-01-24T13:49:00.706Z,4.73
2018-01-24T13:51:29.727Z,5.17
2018-01-24T13:53:58.026Z,4.13
2018-01-24T13:56:26.281Z,4.70
2018-01-24T13:58:54.512Z,5.23
2018-01-24T14:01:22.842Z,4.60
2018-01-24T14:03:51.618Z,5.10
2018-01-24T14:06:19.905Z,6.07
2018-01-24T14:08:48.149Z,7.00
2018-01-24T14:11:17.214Z,6.83
2018-01-24T14:13:45.485Z,6.20
2018-01-24T14:16:13.717Z,6.80
2018-01-24T14:18:42.010Z,8.27
2018-01-24T14:21:10.282Z,7.97
2018-01-24T14:23:38.528Z,6.10
2018-01-24T14:26:07.562Z,5.37
2018-01-24T14:28:35.836Z,5.93
2018-01-24T14:31:04.071Z,4.67
2018-01-24T14:33:33.117Z,6.27
2018-01-24T14:36:01.349Z,6.23
2018-01-24T14:38:29.651Z,5.37
2018-01-24T14:40:57.901Z,5.23
2018-01-24T14:43:26.122Z,5.77
2018-01-24T14:45:54.369Z,6.43
2018-01-24T14:48:22.664Z,6.47
2018-01-24T14:50:50.904Z,7.50
2018-01-24T14:53:19.158Z,9.00
2018-01-24T14:55:48.205Z,9.57
2018-01-24T14:58:16.433Z,7.73
2018-01-24T15:00:45.448Z,7.90
2018-01-24T15:03:13.724Z,8.10
2018-01-24T15:05:41.995Z,7.57
2018-01-24T15:08:10.240Z,8.40
2018-01-24T15:10:38.512Z,7.77
2018-01-24T15:13:06.745Z,9.10
2018-01-24T15:15:35.037Z,9.40
2018-01-24T15:18:03.316Z,8.17
2018-01-24T15:20:32.239Z,8.40
2018-01-24T15:23:02.171Z,8.70
2018-01-24T15:25:30.457Z,8.23
2018-01-24T15:27:58.715Z,6.97
2018-01-24T15:30:26.994Z,8.80
2018-01-24T15:32:55.350Z,7.70
2018-01-24T15:35:23.638Z,7.50
2018-01-24T15:37:52.646Z,7.87
2018-01-24T15:40:20.913Z,9.00
2018-01-24T15:42:50.057Z,9.27
2018-01-24T15:45:18.304Z,7.80
2018-01-24T15:47:46.604Z,9.27
2018-01-24T15:50:14.845Z,9.17
2018-01-24T15:52:43.079Z,9.13
2018-01-24T15:55:11.352Z,7.30
2018-01-24T15:57:39.573Z,7.17
2018-01-24T16:00:07.839Z,10.00
2018-01-24T16:02:36.119Z,10.20
2018-01-24T16:05:04.342Z,10.80
2018-01-24T16:07:32.771Z,12.93
2018-01-24T16:10:01.054Z,12.10
2018-01-24T16:12:29.306Z,9.67
2018-01-24T16:14:58.309Z,10.03
2018-01-24T16:17:27.330Z,12.40
2018-01-24T16:19:55.564Z,12.10
2018-01-24T16:22:23.806Z,13.93
2018-01-24T16:24:52.124Z,13.70
2018-01-24T16:27:21.144Z,14.53
2018-01-24T16:29:49.373Z,11.43
2018-01-24T16:32:17.641Z,10.73
2018-01-24T16:34:45.926Z,10.07
2018-01-24T16:37:14.986Z,13.83
2018-01-24T16:39:43.493Z,13.90
2018-01-24T16:42:11.781Z,14.00
2018-01-24T16:44:40.026Z,13.17
2018-01-24T16:47:08.339Z,14.40
2018-01-24T16:49:36.613Z,14.57
2018-01-24T16:52:05.615Z,19.17
2018-01-24T16:54:34.698Z,14.40
2018-01-24T16:57:03.756Z,18.00
2018-01-24T16:59:32.006Z,18.73
2018-01-24T17:02:00.293Z,17.60
2018-01-24T17:04:28.552Z,16.27
2018-01-24T17:06:56.801Z,19.57
2018-01-24T17:09:26.174Z,18.27
2018-01-24T17:11:54.464Z,15.10
2018-01-24T17:14:22.736Z,17.77
2018-01-24T17:16:51.050Z,18.43
2018-01-24T17:19:19.454Z,20.80
2018-01-24T17:21:47.801Z,24.50
2018-01-24T17:24:16.085Z,26.27
2018-01-24T17:26:44.463Z,24.50
2018-01-24T17:29:12.884Z,16.30
2018-01-24T17:31:41.320Z,11.97
2018-01-24T17:34:09.587Z,16.10
2018-01-24T17:36:38.782Z,12.30
2018-01-24T17:39:07.824Z,23.03
2018-01-24T17:41:36.060Z,19.10
2018-01-24T17:44:04.305Z,17.47
2018-01-24T17:46:32.583Z,18.90
2018-01-24T17:49:00.823Z,21.20
2018-01-24T17:51:29.058Z,20.30
2018-01-24T17:53:58.142Z,19.57
2018-01-24T17:56:27.160Z,16.10
2018-01-24T17:58:55.419Z,19.90
2018-01-24T18:01:23.737Z,18.37
2018-01-24T18:03:51.994Z,17.07
2018-01-24T18:06:20.270Z,19.00
2018-01-24T18:08:48.572Z,20.17
2018-01-24T18:11:16.847Z,15.70
2018-01-24T18:13:45.137Z,21.47
2018-01-24T18:16:13.468Z,21.20
2018-01-24T18:18:41.737Z,19.10
2018-01-24T18:21:09.997Z,19.50
2018-01-24T18:23:39.041Z,21.93
2018-01-24T18:26:07.300Z,20.27
2018-01-24T18:28:35.551Z,20.80
2018-01-24T18:31:03.819Z,15.83
2018-01-24T18:33:32.842Z,16.13
2018-01-24T18:36:01.114Z,19.67
2018-01-24T18:38:29.468Z,17.70
2018-01-24T18:40:57.867Z,16.27
2018-01-24T18:43:26.107Z,19.40
2018-01-24T18:45:55.178Z,22.60
2018-01-24T18:48:23.431Z,20.10
2018-01-24T18:50:51.664Z,20.87
2018-01-24T18:53:20.755Z,18.63
2018-01-24T18:55:49.903Z,23.87
2018-01-24T18:58:18.144Z,23.10
2018-01-24T19:00:46.445Z,20.20
2018-01-24T19:03:14.739Z,22.13
2018-01-24T19:05:42.958Z,21.93
2018-01-24T19:08:11.286Z,20.13
2018-01-24T19:10:39.534Z,18.17
2018-01-24T19:13:08.123Z,18.97
2018-01-24T19:15:36.444Z,19.40
2018-01-24T19:18:04.717Z,19.90
2018-01-24T19:20:33.019Z,22.20
2018-01-24T19:23:02.145Z,35.00
2018-01-24T19:25:30.578Z,30.70
2018-01-24T19:27:58.884Z,30.93
2018-01-24T19:30:27.752Z,22.10
2018-01-24T19:32:56.178Z,22.83
2018-01-24T19:35:25.323Z,23.53
2018-01-24T19:37:54.526Z,25.67
2018-01-24T19:40:23.559Z,22.73
2018-01-24T19:42:54.159Z,19.10
2018-01-24T19:45:22.774Z,20.83
2018-01-24T19:47:53.688Z,17.80
2018-01-24T19:50:23.013Z,19.60
2018-01-24T19:52:51.418Z,18.67
2018-01-24T19:55:20.539Z,17.83
2018-01-24T19:57:48.887Z,19.27
2018-01-24T20:00:17.299Z,17.17
2018-01-24T20:02:45.603Z,17.53
2018-01-24T20:05:14.153Z,18.77
2018-01-24T20:07:42.537Z,20.20
2018-01-24T20:10:11.129Z,19.23
2018-01-24T20:12:40.212Z,22.00
2018-01-24T20:15:09.375Z,19.83
2018-01-24T20:17:38.618Z,17.10
2018-01-24T20:20:07.843Z,17.13
2018-01-24T20:22:36.094Z,17.13
2018-01-24T20:25:04.428Z,21.33
2018-01-24T20:27:32.834Z,16.73
2018-01-24T20:30:02.076Z,18.27
2018-01-24T20:32:30.515Z,15.23
2018-01-24T20:35:01.219Z,18.67
2018-01-24T20:37:30.186Z,16.27
2018-01-24T20:39:58.430Z,14.60
2018-01-24T20:42:26.769Z,18.53
2018-01-24T20:44:55.037Z,13.80
2018-01-24T20:47:23.393Z,15.93
2018-01-24T20:49:51.842Z,14.40
2018-01-24T20:52:20.118Z,18.30
2018-01-24T20:54:49.211Z,15.10
2018-01-24T20:57:17.476Z,14.97
2018-01-24T20:59:46.528Z,14.47
2018-01-24T21:02:15.696Z,18.70
2018-01-24T21:04:43.935Z,19.20
2018-01-24T21:07:12.205Z,20.60
2018-01-24T21:09:40.520Z,16.07
2018-01-24T21:12:08.794Z,17.80
2018-01-24T21:14:37.068Z,15.90
2018-01-24T21:17:05.381Z,19.20
2018-01-24T21:19:33.730Z,15.67
2018-01-24T21:22:02.097Z,17.77
2018-01-24T21:24:30.353Z,16.90
2018-01-24T21:26:59.753Z,17.70
2018-01-24T21:29:52.756Z,20.60
2018-01-24T21:32:39.066Z,14.80
2018-01-24T21:35:25.369Z,15.83
2018-01-24T21:37:53.627Z,20.30
2018-01-24T21:40:21.967Z,19.60
2018-01-24T21:42:50.345Z,17.33
2018-01-24T21:45:18.789Z,22.20
2018-01-24T21:47:47.119Z,19.27
2018-01-24T21:50:15.483Z,15.70
2018-01-24T21:52:44.531Z,15.93
2018-01-24T21:55:12.851Z,15.37
2018-01-24T21:57:41.129Z,18.57
2018-01-24T22:00:10.194Z,14.93
2018-01-24T22:02:38.464Z,18.17
2018-01-24T22:05:06.705Z,13.43
2018-01-24T22:07:35.042Z,16.27
2018-01-24T22:10:04.248Z,17.10
2018-01-24T22:12:32.592Z,17.73
2018-01-24T22:15:01.622Z,21.23
2018-01-24T22:17:30.635Z,17.53
2018-01-24T22:19:58.960Z,18.47
2018-01-24T22:22:27.257Z,20.23
2018-01-24T22:24:55.498Z,16.87
2018-01-24T22:27:23.994Z,14.43
2018-01-24T22:29:52.265Z,16.87
2018-01-24T22:32:20.596Z,18.53
2018-01-24T22:34:48.876Z,17.97
2018-01-24T22:37:17.200Z,18.80
2018-01-24T22:39:45.533Z,21.37
2018-01-24T22:42:13.902Z,14.03
2018-01-24T22:44:42.141Z,17.83
2018-01-24T22:47:10.467Z,17.10
2018-01-24T22:49:38.806Z,21.70
2018-01-24T22:52:07.096Z,18.57
2018-01-24T22:54:35.393Z,21.20
2018-01-24T22:57:03.721Z,17.80
2018-01-24T22:59:32.766Z,19.77
2018-01-24T23:02:01.039Z,17.57
2018-01-24T23:04:29.299Z,17.43
2018-01-24T23:06:57.844Z,17.57
2018-01-24T23:09:26.093Z,18.10
2018-01-24T23:11:54.345Z,20.43
2018-01-24T23:14:22.758Z,21.37
2018-01-24T23:16:51.049Z,18.90
2018-01-24T23:19:19.383Z,15.87
2018-01-24T23:21:47.659Z,17.60
2018-01-24T23:24:15.921Z,12.77
2018-01-24T23:26:44.284Z,17.53
2018-01-24T23:29:12.594Z,13.17
2018-01-24T23:31:40.835Z,20.90
2018-01-24T23:34:09.209Z,20.57
2018-01-24T23:36:37.497Z,19.93
2018-01-24T23:39:05.810Z,20.40
2018-01-24T23:41:34.217Z,18.77
2018-01-24T23:44:02.496Z,16.40
2018-01-24T23:46:30.746Z,20.00
2018-01-24T23:48:59.039Z,18.00
2018-01-24T23:51:27.480Z,14.57
2018-01-24T23:53:55.739Z,14.70
2018-01-24T23:56:23.992Z,17.40
2018-01-24T23:58:53.077Z,16.53
